Time;durP1;ratioP1;P1;durP2;ratioP2;P2;SDS_P1;SDS_P2;PMS_P1;PMS_P2;Temp;Humidity;BMP_temperature;BMP_pressure;BME280_temperature;BME280_humidity;BME280_pressure;Samples;Min_cycle;Max_cycle;Signal;HPM_P1;HPM_P2
2023/12/15 00:00:16;;;;;;;8.60;3.83;;;6.60;99.90;;;;;;4969308;28;20041;-74
2023/12/15 00:02:42;;;;;;;19.92;3.60;;;6.50;99.90;;;;;;4968307;28;20026;-72
2023/12/15 00:05:09;;;;;;;8.35;3.75;;;6.60;99.90;;;;;;4965153;28;20431;-74
2023/12/15 00:07:35;;;;;;;7.82;3.72;;;6.50;99.90;;;;;;4972839;28;20462;-74
2023/12/15 00:10:00;;;;;;;9.95;3.65;;;6.50;99.90;;;;;;4952723;28;20058;-74
2023/12/15 00:12:26;;;;;;;9.95;3.30;;;6.60;99.90;;;;;;4969085;28;20109;-72
2023/12/15 00:14:52;;;;;;;12.23;3.72;;;6.60;99.90;;;;;;4952326;28;20033;-70
2023/12/15 00:17:20;;;;;;;9.75;4.05;;;6.60;99.90;;;;;;4969081;28;20060;-74
2023/12/15 00:19:52;;;;;;;7.25;2.80;;;6.50;99.90;;;;;;4960226;28;20034;-74
2023/12/15 00:22:17;;;;;;;5.97;3.75;;;6.50;99.90;;;;;;4966645;28;20398;-73
2023/12/15 00:24:46;;;;;;;8.90;3.33;;;6.50;99.90;;;;;;4969206;28;20117;-74
2023/12/15 00:27:12;;;;;;;6.07;2.90;;;6.50;99.90;;;;;;4966635;28;20479;-74
2023/12/15 00:29:40;;;;;;;8.80;3.47;;;6.40;99.90;;;;;;4970324;28;20045;-74
2023/12/15 00:32:06;;;;;;;8.70;3.60;;;6.40;99.90;;;;;;4967243;28;20026;-73
2023/12/15 00:34:32;;;;;;;8.85;3.17;;;6.30;99.90;;;;;;4969954;28;20037;-73
2023/12/15 00:37:03;;;;;;;7.63;3.00;;;6.30;99.90;;;;;;4953303;28;20059;-74
2023/12/15 00:39:30;;;;;;;7.15;3.53;;;6.20;99.90;;;;;;4967553;28;20023;-72
2023/12/15 00:41:56;;;;;;;7.50;3.22;;;6.20;99.90;;;;;;4969092;28;20085;-72
2023/12/15 00:44:22;;;;;;;12.90;3.95;;;6.20;99.90;;;;;;4968991;28;20030;-72
2023/12/15 00:46:47;;;;;;;11.38;2.95;;;6.20;99.90;;;;;;4969291;28;20062;-74
2023/12/15 00:49:13;;;;;;;8.07;4.22;;;6.10;99.90;;;;;;4969883;28;20022;-73
2023/12/15 00:51:39;;;;;;;8.52;3.58;;;6.00;99.90;;;;;;4983859;28;20062;-73
2023/12/15 00:54:05;;;;;;;11.57;4.30;;;6.10;99.90;;;;;;4967413;28;20270;-73
2023/12/15 00:56:31;;;;;;;9.02;3.67;;;6.10;99.90;;;;;;4967855;28;20555;-73
2023/12/15 00:58:57;;;;;;;7.88;3.03;;;6.20;99.90;;;;;;4969468;28;20027;-73
2023/12/15 01:01:23;;;;;;;5.13;2.58;;;6.10;99.90;;;;;;4970338;28;20030;-74
2023/12/15 01:03:48;;;;;;;9.98;4.28;;;6.20;99.90;;;;;;4967706;28;20038;-73
2023/12/15 01:06:14;;;;;;;7.70;4.10;;;6.10;99.90;;;;;;4967598;28;20085;-73
2023/12/15 01:08:40;;;;;;;10.45;4.15;;;6.10;99.90;;;;;;4954581;28;20137;-73
2023/12/15 01:11:08;;;;;;;18.63;4.18;;;6.00;99.90;;;;;;4968642;28;20475;-73
2023/12/15 01:13:34;;;;;;;10.45;4.07;;;6.00;99.90;;;;;;4970363;28;20039;-73
2023/12/15 01:16:03;;;;;;;8.20;3.65;;;5.90;99.90;;;;;;4953849;28;20109;-72
2023/12/15 01:18:28;;;;;;;8.23;3.15;;;5.90;99.90;;;;;;4968704;28;20027;-73
2023/12/15 01:20:54;;;;;;;10.48;4.22;;;5.90;99.90;;;;;;4952343;28;20030;-72
2023/12/15 01:23:23;;;;;;;6.95;4.03;;;5.80;99.90;;;;;;4967315;28;20538;-73
2023/12/15 01:25:56;;;;;;;6.65;2.92;;;5.80;99.90;;;;;;4967746;28;20117;-74
2023/12/15 01:28:22;;;;;;;8.25;4.03;;;5.80;99.90;;;;;;4968696;28;20094;-73
2023/12/15 01:30:48;;;;;;;7.88;3.72;;;5.70;99.90;;;;;;4950576;28;20027;-72
2023/12/15 01:33:13;;;;;;;10.30;3.45;;;5.70;99.90;;;;;;4966571;28;20042;-73
2023/12/15 01:35:39;;;;;;;5.90;3.00;;;5.70;99.90;;;;;;4968655;28;20085;-72
2023/12/15 01:38:05;;;;;;;9.15;3.47;;;5.80;99.90;;;;;;4968394;28;20371;-72
2023/12/15 01:40:31;;;;;;;11.77;4.13;;;5.90;99.90;;;;;;4970144;28;20371;-74
2023/12/15 01:43:03;;;;;;;7.10;3.67;;;5.90;99.90;;;;;;4966605;28;20027;-74
2023/12/15 01:45:29;;;;;;;12.80;4.47;;;5.90;99.90;;;;;;4965181;28;20031;-73
2023/12/15 01:47:55;;;;;;;9.75;4.20;;;5.90;99.90;;;;;;4966037;28;20023;-73
2023/12/15 01:50:21;;;;;;;9.38;3.80;;;5.90;99.90;;;;;;4967773;28;20019;-73
2023/12/15 01:52:47;;;;;;;12.90;4.63;;;5.90;99.90;;;;;;4967699;28;20038;-74
2023/12/15 01:55:13;;;;;;;7.80;3.67;;;5.80;99.90;;;;;;4950191;28;20019;-73
2023/12/15 01:57:38;;;;;;;5.85;2.67;;;5.90;99.90;;;;;;4969302;28;20559;-73
2023/12/15 02:00:06;;;;;;;13.23;3.80;;;5.90;99.90;;;;;;4965564;28;20039;-73
2023/12/15 02:02:35;;;;;;;7.10;3.45;;;5.80;99.90;;;;;;4967102;28;20683;-74
2023/12/15 02:05:02;;;;;;;9.52;3.35;;;5.80;99.90;;;;;;4964212;28;20153;-73
2023/12/15 02:07:28;;;;;;;13.52;3.92;;;5.70;99.90;;;;;;4966985;28;20034;-74
2023/12/15 02:09:55;;;;;;;6.63;3.30;;;5.80;99.90;;;;;;4964242;28;20049;-74
2023/12/15 02:12:22;;;;;;;10.45;4.22;;;5.80;99.90;;;;;;4964645;28;20065;-73
2023/12/15 02:14:47;;;;;;;7.22;3.65;;;5.80;99.90;;;;;;4965613;28;20045;-74
2023/12/15 02:17:13;;;;;;;10.07;4.45;;;5.70;99.90;;;;;;4967049;28;20106;-74
2023/12/15 02:19:39;;;;;;;12.20;3.65;;;5.70;99.90;;;;;;4952876;28;20054;-74
2023/12/15 02:22:05;;;;;;;14.60;4.13;;;5.80;99.90;;;;;;4967962;28;20238;-74
2023/12/15 02:24:31;;;;;;;9.25;3.90;;;5.80;99.90;;;;;;4967820;28;20039;-74
2023/12/15 02:26:57;;;;;;;8.75;3.85;;;5.80;99.90;;;;;;4967516;28;20079;-74
2023/12/15 02:29:26;;;;;;;9.20;3.20;;;5.80;99.90;;;;;;4966423;28;20058;-74
2023/12/15 02:31:52;;;;;;;9.38;4.07;;;5.80;99.90;;;;;;4968812;28;20109;-73
2023/12/15 02:34:18;;;;;;;9.70;4.22;;;5.80;99.90;;;;;;4970442;28;20117;-74
2023/12/15 02:36:44;;;;;;;8.55;3.53;;;5.80;99.90;;;;;;4953618;28;20109;-73
2023/12/15 02:39:10;;;;;;;8.70;3.60;;;5.80;99.90;;;;;;4963994;28;20159;-73
2023/12/15 02:41:36;;;;;;;8.70;3.50;;;5.90;99.90;;;;;;4965366;28;20034;-73
2023/12/15 02:44:01;;;;;;;10.63;3.60;;;5.80;99.90;;;;;;4963664;28;20038;-73
2023/12/15 02:46:27;;;;;;;6.28;3.47;;;5.90;99.90;;;;;;4967231;28;20039;-73
2023/12/15 02:48:53;;;;;;;7.20;3.30;;;5.80;99.90;;;;;;4964357;28;20122;-73
2023/12/15 02:51:27;;;;;;;7.65;3.80;;;5.90;99.90;;;;;;4965167;28;20027;-73
2023/12/15 02:53:54;;;;;;;10.95;3.22;;;5.80;99.90;;;;;;4966718;28;20061;-73
2023/12/15 02:56:20;;;;;;;11.93;4.93;;;5.80;99.90;;;;;;4965923;28;20403;-73
2023/12/15 02:58:45;;;;;;;20.95;3.53;;;5.70;99.90;;;;;;4951931;28;20133;-73
2023/12/15 03:01:11;;;;;;;7.10;4.43;;;5.70;99.90;;;;;;4967649;28;20504;-73
2023/12/15 03:03:37;;;;;;;11.75;4.55;;;5.70;99.90;;;;;;4964221;28;20041;-73
2023/12/15 03:06:03;;;;;;;12.18;4.53;;;5.70;99.90;;;;;;4969273;28;20035;-73
2023/12/15 03:08:28;;;;;;;9.35;4.38;;;5.70;99.90;;;;;;4967315;28;20062;-73
2023/12/15 03:10:57;;;;;;;9.75;4.40;;;5.70;99.90;;;;;;4981462;28;20077;-73
2023/12/15 03:13:30;;;;;;;11.50;3.65;;;5.70;99.90;;;;;;4965104;28;20031;-73
2023/12/15 03:16:10;;;;;;;10.80;3.20;;;5.70;99.90;;;;;;4965918;28;20475;-73
2023/12/15 03:18:37;;;;;;;7.20;2.47;;;5.70;99.90;;;;;;4963798;28;20475;-73
2023/12/15 03:21:03;;;;;;;7.20;3.28;;;5.50;99.90;;;;;;4967614;28;20027;-73
2023/12/15 03:23:29;;;;;;;8.98;4.07;;;5.40;99.90;;;;;;4948886;28;20388;-73
2023/12/15 03:25:55;;;;;;;11.82;3.60;;;5.40;99.90;;;;;;4968924;28;20228;-73
2023/12/15 03:28:21;;;;;;;14.07;4.03;;;5.30;99.90;;;;;;4965804;28;20143;-73
2023/12/15 03:30:47;;;;;;;27.08;4.65;;;5.30;99.90;;;;;;4963668;28;20129;-73
2023/12/15 03:33:12;;;;;;;10.93;4.18;;;5.40;99.90;;;;;;4965735;28;20073;-75
2023/12/15 03:35:38;;;;;;;19.05;5.13;;;5.40;99.90;;;;;;4982072;28;20035;-74
2023/12/15 03:38:07;;;;;;;10.82;4.10;;;5.40;99.90;;;;;;4963992;28;20130;-74
2023/12/15 03:40:32;;;;;;;9.57;3.67;;;5.50;99.90;;;;;;4965712;28;20042;-74
2023/12/15 03:42:58;;;;;;;12.13;4.63;;;5.40;99.90;;;;;;4965241;28;20368;-74
2023/12/15 03:45:25;;;;;;;7.68;3.55;;;5.50;99.90;;;;;;4963898;28;20054;-74
2023/12/15 03:47:51;;;;;;;9.55;4.35;;;5.40;99.90;;;;;;4967507;28;20113;-74
2023/12/15 03:50:18;;;;;;;13.30;5.57;;;5.40;99.90;;;;;;4962340;28;20038;-74
2023/12/15 03:52:43;;;;;;;10.65;3.70;;;5.30;99.90;;;;;;4963803;28;20022;-74
2023/12/15 03:55:09;;;;;;;11.15;5.88;;;5.30;99.90;;;;;;4969165;28;20097;-74
2023/12/15 03:57:35;;;;;;;22.02;5.90;;;5.20;99.90;;;;;;4967963;28;20113;-74
2023/12/15 04:00:02;;;;;;;11.90;3.53;;;5.20;99.90;;;;;;4950401;28;20043;-74
2023/12/15 04:02:28;;;;;;;15.25;6.45;;;5.10;99.90;;;;;;4964786;28;20030;-74
2023/12/15 04:04:54;;;;;;;8.30;3.33;;;5.10;99.90;;;;;;4967011;28;22254;-73
2023/12/15 04:07:20;;;;;;;6.68;3.67;;;5.00;99.90;;;;;;4946921;28;20431;-72
2023/12/15 04:09:46;;;;;;;11.68;4.78;;;5.00;99.90;;;;;;4964038;28;20035;-72
2023/12/15 04:12:12;;;;;;;13.93;5.15;;;5.00;99.90;;;;;;4967561;28;20019;-72
2023/12/15 04:14:37;;;;;;;9.77;4.05;;;5.00;99.90;;;;;;4965642;28;20510;-72
2023/12/15 04:17:03;;;;;;;11.65;5.85;;;5.00;99.90;;;;;;4963008;28;20035;-72
2023/12/15 04:19:31;;;;;;;9.95;3.90;;;5.50;99.90;;;;;;4966726;28;20035;-72
2023/12/15 04:21:56;;;;;;;11.32;4.75;;;5.20;99.90;;;;;;4968275;28;20109;-72
2023/12/15 04:24:23;;;;;;;6.72;3.78;;;5.20;99.90;;;;;;4967752;28;20109;-73
2023/12/15 04:26:53;;;;;;;14.80;4.47;;;5.00;99.90;;;;;;4968068;28;20474;-73
2023/12/15 04:29:18;;;;;;;15.25;4.05;;;4.90;99.90;;;;;;4965207;28;20039;-74
2023/12/15 04:31:44;;;;;;;7.13;3.65;;;4.80;99.90;;;;;;4966558;28;20038;-74
2023/12/15 04:34:10;;;;;;;8.50;4.32;;;4.70;99.90;;;;;;4968419;28;20071;-73
2023/12/15 04:36:38;;;;;;;7.85;4.22;;;4.70;99.90;;;;;;4965263;28;20031;-74
2023/12/15 04:39:04;;;;;;;10.82;3.70;;;4.70;99.90;;;;;;4963570;28;20547;-74
2023/12/15 04:41:30;;;;;;;7.45;3.50;;;4.60;99.90;;;;;;4963691;28;20161;-74
2023/12/15 04:43:55;;;;;;;9.48;4.05;;;4.60;99.90;;;;;;4963574;28;20023;-73
2023/12/15 04:46:26;;;;;;;8.95;3.60;;;4.50;99.90;;;;;;4986538;28;20121;-74
2023/12/15 04:48:53;;;;;;;13.18;3.88;;;4.40;99.90;;;;;;4968838;28;20058;-73
2023/12/15 04:51:19;;;;;;;16.40;3.85;;;4.40;99.90;;;;;;4967647;28;20082;-73
2023/12/15 04:53:46;;;;;;;10.00;4.53;;;4.40;99.90;;;;;;4969313;28;20471;-74
2023/12/15 04:56:12;;;;;;;8.82;3.80;;;4.50;99.90;;;;;;4969915;28;20037;-73
2023/12/15 04:58:38;;;;;;;9.60;3.55;;;4.70;99.90;;;;;;4968950;28;20121;-74
2023/12/15 05:01:04;;;;;;;8.80;5.32;;;4.70;99.90;;;;;;4969716;28;20090;-73
2023/12/15 05:03:31;;;;;;;13.05;5.20;;;4.70;99.90;;;;;;4966957;28;20105;-74
2023/12/15 05:05:57;;;;;;;8.68;4.38;;;4.80;99.90;;;;;;4978742;28;20561;-73
2023/12/15 05:08:23;;;;;;;9.15;3.92;;;4.80;99.90;;;;;;4967785;28;20139;-74
2023/12/15 05:10:49;;;;;;;8.35;3.05;;;4.80;99.90;;;;;;4968326;28;20123;-74
2023/12/15 05:13:14;;;;;;;9.60;4.22;;;4.80;99.90;;;;;;4967747;28;20029;-74
2023/12/15 05:15:40;;;;;;;8.27;3.55;;;4.80;99.90;;;;;;4967998;28;20031;-73
2023/12/15 05:18:06;;;;;;;7.22;3.83;;;4.90;99.90;;;;;;4970337;28;20050;-73
2023/12/15 05:20:36;;;;;;;8.02;3.85;;;4.90;99.90;;;;;;4969429;28;20035;-73
2023/12/15 05:23:05;;;;;;;9.15;3.67;;;5.00;99.90;;;;;;4970434;28;20039;-73
2023/12/15 05:25:31;;;;;;;26.83;8.68;;;4.90;99.90;;;;;;4969107;28;20114;-73
2023/12/15 05:27:57;;;;;;;25.30;11.05;;;5.00;99.90;;;;;;4950942;28;20065;-73
2023/12/15 05:30:26;;;;;;;20.95;8.75;;;5.20;99.90;;;;;;4969503;28;20427;-74
2023/12/15 05:32:54;;;;;;;5.30;3.08;;;5.20;99.90;;;;;;4969752;28;20643;-74
2023/12/15 05:35:20;;;;;;;9.60;4.82;;;5.20;99.90;;;;;;4971571;28;20019;-74
2023/12/15 05:37:46;;;;;;;6.82;3.88;;;5.40;99.90;;;;;;4966633;28;20735;-74
2023/12/15 05:40:12;;;;;;;11.20;4.30;;;5.50;99.90;;;;;;4944145;28;21477;-74
2023/12/15 05:42:38;;;;;;;15.85;5.82;;;5.50;99.90;;;;;;4966986;28;20049;-73
2023/12/15 05:45:05;;;;;;;8.57;3.92;;;5.60;99.90;;;;;;4972000;28;20039;-72
2023/12/15 05:47:30;;;;;;;6.72;3.78;;;5.60;99.90;;;;;;4965206;28;20105;-74
2023/12/15 05:49:56;;;;;;;4.40;2.50;;;5.40;99.90;;;;;;4969155;28;20571;-71
2023/12/15 05:52:22;;;;;;;7.57;3.22;;;5.30;99.90;;;;;;4973159;28;20075;-73
2023/12/15 05:54:47;;;;;;;10.63;4.40;;;5.20;99.90;;;;;;4969298;28;20030;-73
2023/12/15 05:57:13;;;;;;;8.50;3.30;;;5.20;99.90;;;;;;4971002;28;20042;-72
2023/12/15 05:59:39;;;;;;;7.90;3.20;;;5.20;99.90;;;;;;4968454;28;20054;-73
2023/12/15 06:02:05;;;;;;;10.05;3.80;;;5.20;99.90;;;;;;4971915;28;20110;-72
2023/12/15 06:04:31;;;;;;;11.63;2.97;;;5.20;99.90;;;;;;4973029;28;20197;-73
2023/12/15 06:06:56;;;;;;;9.52;4.10;;;5.20;99.90;;;;;;4971172;28;20033;-73
2023/12/15 06:09:22;;;;;;;14.15;2.90;;;5.20;99.90;;;;;;4971505;28;20094;-73
2023/12/15 06:11:49;;;;;;;7.60;3.65;;;5.30;99.90;;;;;;4972566;28;20390;-73
2023/12/15 06:14:14;;;;;;;6.63;4.28;;;5.30;99.90;;;;;;4970644;28;20498;-73
2023/12/15 06:16:40;;;;;;;5.50;2.30;;;5.40;99.90;;;;;;4972558;28;20046;-72
2023/12/15 06:19:06;;;;;;;5.88;3.05;;;5.30;99.90;;;;;;4969443;28;20147;-72
2023/12/15 06:21:32;;;;;;;6.60;3.42;;;5.30;99.90;;;;;;4972620;28;20114;-73
2023/12/15 06:23:58;;;;;;;8.98;3.17;;;5.40;99.90;;;;;;4971994;28;20113;-72
2023/12/15 06:26:26;;;;;;;10.80;3.85;;;5.30;99.90;;;;;;4971715;28;20027;-72
2023/12/15 06:28:55;;;;;;;8.80;3.15;;;5.40;99.90;;;;;;4970474;28;20050;-72
2023/12/15 06:31:22;;;;;;;8.73;3.53;;;5.30;99.90;;;;;;4970696;28;20371;-72
2023/12/15 06:33:48;;;;;;;8.63;3.72;;;5.20;99.90;;;;;;4969123;28;20391;-74
2023/12/15 06:36:14;;;;;;;9.30;3.63;;;5.20;99.90;;;;;;4954711;28;20530;-73
2023/12/15 06:38:44;;;;;;;5.85;3.63;;;5.10;99.90;;;;;;4970428;28;20158;-69
2023/12/15 06:41:11;;;;;;;6.00;2.90;;;5.10;99.90;;;;;;4970514;28;20595;-72
2023/12/15 06:43:42;;;;;;;7.28;3.05;;;5.10;99.90;;;;;;4970672;28;20129;-72
2023/12/15 06:46:09;;;;;;;5.32;3.30;;;5.00;99.90;;;;;;4970056;28;20039;-73
2023/12/15 06:48:35;;;;;;;9.90;2.95;;;5.00;99.90;;;;;;4970370;28;20050;-73
2023/12/15 06:51:01;;;;;;;5.90;3.30;;;5.00;99.90;;;;;;4971663;28;20070;-72
2023/12/15 06:53:26;;;;;;;7.47;3.38;;;4.90;99.90;;;;;;4968138;28;20170;-72
2023/12/15 06:55:52;;;;;;;16.63;3.58;;;4.90;99.90;;;;;;4970601;28;20559;-71
2023/12/15 06:58:19;;;;;;;10.43;4.22;;;4.90;99.90;;;;;;4970065;28;20122;-72
2023/12/15 07:00:44;;;;;;;4.82;2.33;;;4.90;99.90;;;;;;4967986;28;20035;-72
2023/12/15 07:03:10;;;;;;;6.18;3.67;;;4.90;99.90;;;;;;4965484;28;20027;-72
2023/12/15 07:05:36;;;;;;;5.80;3.28;;;4.80;99.90;;;;;;4971238;28;20054;-72
2023/12/15 07:08:05;;;;;;;7.55;3.45;;;4.80;99.90;;;;;;4969516;28;20093;-72
2023/12/15 07:10:30;;;;;;;5.35;2.60;;;4.90;99.90;;;;;;4968504;28;20724;-73
2023/12/15 07:12:56;;;;;;;5.38;3.08;;;4.80;99.90;;;;;;4969110;28;20038;-72
2023/12/15 07:15:24;;;;;;;9.82;3.85;;;4.80;99.90;;;;;;4949049;28;20034;-59
2023/12/15 07:17:50;;;;;;;5.82;2.90;;;4.80;99.90;;;;;;4966331;28;20031;-58
2023/12/15 07:20:16;;;;;;;14.05;4.32;;;4.90;99.90;;;;;;4967143;28;20045;-59
2023/12/15 07:22:41;;;;;;;6.13;3.22;;;4.90;99.90;;;;;;4964552;28;20430;-56
2023/12/15 07:25:07;;;;;;;7.05;3.65;;;4.90;99.90;;;;;;4957969;28;20066;-60
2023/12/15 07:27:34;;;;;;;6.75;3.50;;;4.90;99.90;;;;;;4966351;28;20457;-60
2023/12/15 07:30:00;;;;;;;8.18;3.45;;;4.90;99.90;;;;;;4953898;28;20042;-58
2023/12/15 07:32:25;;;;;;;7.82;3.83;;;5.00;99.90;;;;;;4965571;28;20030;-59
2023/12/15 07:34:51;;;;;;;8.05;3.90;;;4.90;99.90;;;;;;4963673;28;20035;-59
2023/12/15 07:37:17;;;;;;;6.80;3.05;;;4.90;99.90;;;;;;4969587;28;20045;-73
2023/12/15 07:39:43;;;;;;;6.75;3.70;;;4.90;99.90;;;;;;4968783;28;20494;-72
2023/12/15 07:42:11;;;;;;;7.97;3.70;;;4.90;99.90;;;;;;4965016;28;20085;-72
2023/12/15 07:44:37;;;;;;;10.57;4.40;;;4.90;99.90;;;;;;4969982;28;20039;-72
2023/12/15 07:47:03;;;;;;;7.47;3.40;;;4.90;99.90;;;;;;4964942;28;20046;-71
2023/12/15 07:49:33;;;;;;;9.38;3.90;;;5.00;99.90;;;;;;4969181;28;20139;-72
2023/12/15 07:52:00;;;;;;;12.90;3.75;;;4.90;99.90;;;;;;4969346;28;20031;-71
2023/12/15 07:54:27;;;;;;;9.18;4.50;;;4.90;99.90;;;;;;4966906;28;20031;-71
2023/12/15 07:56:52;;;;;;;8.27;3.22;;;5.00;99.90;;;;;;4964441;28;20035;-71
2023/12/15 07:59:18;;;;;;;7.97;4.38;;;5.10;99.90;;;;;;4968412;28;20093;-71
2023/12/15 08:01:52;;;;;;;9.38;4.75;;;5.10;99.90;;;;;;4968083;28;20034;-70
2023/12/15 08:04:21;;;;;;;9.07;3.83;;;5.10;99.90;;;;;;4963099;28;20061;-71
2023/12/15 08:06:47;;;;;;;6.70;2.75;;;5.20;99.90;;;;;;4965974;28;20042;-72
2023/12/15 08:09:12;;;;;;;10.60;4.47;;;5.20;99.90;;;;;;4966887;28;20114;-72
2023/12/15 08:11:38;;;;;;;6.85;3.65;;;5.20;99.90;;;;;;4967099;28;20609;-71
2023/12/15 08:14:04;;;;;;;9.63;4.93;;;5.20;99.90;;;;;;4996968;23;20494;-71
2023/12/15 08:16:30;;;;;;;12.70;5.43;;;5.30;99.90;;;;;;4987839;28;20026;-71
2023/12/15 08:18:57;;;;;;;9.68;3.80;;;5.30;99.90;;;;;;4990683;28;20034;-71
2023/12/15 08:21:24;;;;;;;9.70;3.17;;;5.30;99.90;;;;;;4992142;28;20034;-72
2023/12/15 08:23:50;;;;;;;10.23;5.32;;;5.30;99.90;;;;;;4993730;28;20089;-71
2023/12/15 08:26:25;;;;;;;29.85;3.72;;;5.30;99.90;;;;;;4993188;28;20048;-71
2023/12/15 08:28:53;;;;;;;12.85;4.50;;;5.40;99.90;;;;;;5008690;28;20042;-71
2023/12/15 08:31:23;;;;;;;10.27;4.43;;;5.50;99.90;;;;;;5007660;28;20038;-71
2023/12/15 08:33:50;;;;;;;7.60;4.00;;;5.60;99.90;;;;;;4997055;28;20030;-71
2023/12/15 08:36:16;;;;;;;8.88;3.83;;;5.70;99.90;;;;;;5016805;28;20041;-71
2023/12/15 08:38:42;;;;;;;7.47;4.28;;;5.80;99.90;;;;;;4991413;28;20470;-71
2023/12/15 08:41:08;;;;;;;7.75;4.30;;;5.80;99.90;;;;;;4991773;28;20084;-71
2023/12/15 08:43:34;;;;;;;10.77;5.30;;;5.90;99.90;;;;;;4992946;28;20042;-71
2023/12/15 08:46:01;;;;;;;15.40;4.88;;;5.80;99.90;;;;;;4985653;28;20106;-71
2023/12/15 08:48:26;;;;;;;8.63;4.85;;;5.90;99.90;;;;;;5012123;28;20329;-71
2023/12/15 08:50:52;;;;;;;14.60;5.47;;;5.90;99.90;;;;;;4989475;28;20041;-71
2023/12/15 08:53:18;;;;;;;11.27;4.47;;;5.90;99.90;;;;;;5001153;28;20038;-71
2023/12/15 08:55:45;;;;;;;13.80;5.93;;;5.90;99.90;;;;;;4991259;28;20045;-71
2023/12/15 08:58:11;;;;;;;14.40;5.38;;;6.00;99.90;;;;;;4991918;28;20132;-71
2023/12/15 09:00:37;;;;;;;14.88;6.82;;;6.10;99.90;;;;;;4992267;28;20053;-71
2023/12/15 09:03:04;;;;;;;10.90;5.30;;;6.20;99.90;;;;;;4988732;28;20042;-71
2023/12/15 09:05:31;;;;;;;15.02;5.88;;;6.30;99.90;;;;;;4986723;28;20057;-71
2023/12/15 09:07:58;;;;;;;8.80;4.82;;;6.30;99.90;;;;;;4983536;28;20050;-70
2023/12/15 09:10:24;;;;;;;13.80;4.82;;;6.30;99.90;;;;;;4993471;28;20034;-70
2023/12/15 09:12:50;;;;;;;8.93;5.40;;;6.40;99.90;;;;;;4989949;28;20034;-70
2023/12/15 09:15:16;;;;;;;11.38;5.55;;;6.40;99.90;;;;;;4994642;28;20030;-70
2023/12/15 09:17:43;;;;;;;17.98;5.75;;;6.50;99.90;;;;;;4984308;28;20057;-71
2023/12/15 09:20:11;;;;;;;13.02;5.85;;;6.50;99.90;;;;;;4990241;28;20022;-70
2023/12/15 09:22:38;;;;;;;12.55;5.10;;;6.60;99.90;;;;;;4991308;28;20078;-71
2023/12/15 09:25:05;;;;;;;13.20;5.70;;;6.60;99.90;;;;;;4972437;28;20038;-72
2023/12/15 09:27:31;;;;;;;8.20;5.15;;;6.50;99.90;;;;;;4990200;28;20047;-71
2023/12/15 09:29:59;;;;;;;10.68;5.00;;;6.60;99.90;;;;;;4987025;28;20391;-71
2023/12/15 09:32:25;;;;;;;16.30;5.60;;;6.50;99.90;;;;;;4993983;28;20030;-71
2023/12/15 09:34:51;;;;;;;8.43;4.32;;;6.50;99.90;;;;;;4990117;28;20038;-70
2023/12/15 09:37:17;;;;;;;15.38;5.85;;;6.70;99.90;;;;;;4977073;28;20030;-71
2023/12/15 09:39:43;;;;;;;11.20;4.60;;;6.70;99.90;;;;;;4989285;28;20070;-71
2023/12/15 09:42:09;;;;;;;11.50;5.20;;;6.70;99.90;;;;;;4993169;28;20034;-70
2023/12/15 09:44:35;;;;;;;19.95;5.35;;;6.70;99.90;;;;;;4985166;28;21168;-70
2023/12/15 09:47:02;;;;;;;10.30;5.07;;;6.70;99.90;;;;;;4990641;28;20129;-70
2023/12/15 09:49:32;;;;;;;10.32;5.10;;;6.70;99.90;;;;;;4984212;28;20062;-70
2023/12/15 09:52:04;;;;;;;12.18;5.55;;;6.80;99.90;;;;;;4998303;28;20375;-71
2023/12/15 09:54:31;;;;;;;13.88;4.93;;;6.80;99.90;;;;;;4988035;28;20022;-71
2023/12/15 09:56:57;;;;;;;9.30;4.63;;;6.80;99.90;;;;;;4989365;28;20041;-72
2023/12/15 09:59:23;;;;;;;8.65;4.47;;;6.80;99.90;;;;;;4997856;28;20449;-71
2023/12/15 10:01:49;;;;;;;12.80;5.07;;;6.80;99.90;;;;;;5015421;28;20034;-70
2023/12/15 10:04:14;;;;;;;12.40;4.00;;;6.70;99.90;;;;;;4993900;28;20031;-71
2023/12/15 10:06:41;;;;;;;11.50;4.70;;;6.80;99.90;;;;;;4985561;28;20042;-70
2023/12/15 10:09:12;;;;;;;10.63;4.82;;;6.80;99.90;;;;;;4996715;28;20447;-72
2023/12/15 10:11:40;;;;;;;25.02;4.65;;;6.90;99.90;;;;;;4996195;28;20036;-71
2023/12/15 10:14:07;;;;;;;9.77;4.28;;;7.00;99.90;;;;;;4994224;28;20095;-71
2023/12/15 10:16:37;;;;;;;8.07;3.35;;;7.00;99.90;;;;;;4997445;28;20026;-71
2023/12/15 10:19:08;;;;;;;10.87;4.77;;;7.10;99.90;;;;;;4992307;28;20102;-71
2023/12/15 10:21:35;;;;;;;12.73;4.97;;;7.20;99.90;;;;;;4994981;28;20033;-71
2023/12/15 10:24:21;;;;;;;8.60;4.47;;;7.30;99.90;;;;;;4992355;28;20042;-71
2023/12/15 10:26:47;;;;;;;11.57;5.00;;;7.50;99.90;;;;;;4998732;28;20125;-71
2023/12/15 10:29:15;;;;;;;8.35;3.70;;;7.60;99.90;;;;;;4985848;28;20035;-71
2023/12/15 10:31:41;;;;;;;10.70;4.50;;;7.60;99.90;;;;;;4990420;28;20054;-71
2023/12/15 11:03:41;;;;;;;8.80;3.83;;;7.40;99.90;;;;;;5890806;23;21058;-66
2023/12/15 11:06:07;;;;;;;9.38;4.75;;;7.50;99.90;;;;;;4989616;28;20042;-66
2023/12/15 11:08:33;;;;;;;11.30;4.75;;;7.60;99.90;;;;;;5005640;28;20056;-67
2023/12/15 11:10:59;;;;;;;11.15;3.83;;;7.70;99.90;;;;;;4991774;28;20396;-67
2023/12/15 11:13:59;;;;;;;11.98;4.05;;;7.70;99.90;;;;;;5005242;28;20030;-67
2023/12/15 11:16:29;;;;;;;8.10;4.43;;;7.40;99.90;;;;;;4970310;28;20046;-67
2023/12/15 11:18:57;;;;;;;10.40;4.60;;;7.20;99.90;;;;;;4991878;28;20486;-67
2023/12/15 11:21:23;;;;;;;15.13;3.97;;;7.20;99.90;;;;;;4988010;28;20118;-67
2023/12/15 11:24:05;;;;;;;7.57;3.67;;;7.30;99.90;;;;;;4986124;28;20038;-67
2023/12/15 11:26:39;;;;;;;11.73;4.85;;;7.30;99.90;;;;;;4978140;28;20104;-67
2023/12/15 11:29:11;;;;;;;18.98;5.45;;;7.20;99.90;;;;;;4955962;28;20026;-66
2023/12/15 11:31:40;;;;;;;12.65;5.25;;;7.20;99.90;;;;;;4989255;28;20022;-68
2023/12/15 11:34:07;;;;;;;12.75;6.20;;;7.20;99.90;;;;;;4988387;28;20033;-68
2023/12/15 11:36:45;;;;;;;7.60;4.28;;;7.30;99.90;;;;;;4990900;28;20026;-69
2023/12/15 11:39:12;;;;;;;9.57;4.50;;;7.40;99.90;;;;;;5001383;28;20037;-67
2023/12/15 11:41:39;;;;;;;13.57;5.63;;;7.40;99.90;;;;;;4980306;28;20038;-68
2023/12/15 11:44:05;;;;;;;8.95;4.13;;;7.40;99.90;;;;;;4960675;28;20078;-68
2023/12/15 11:46:33;;;;;;;12.85;4.70;;;7.50;99.90;;;;;;4967957;28;20199;-68
2023/12/15 11:49:00;;;;;;;13.15;5.22;;;7.50;99.90;;;;;;5011081;23;20042;-74
2023/12/15 11:51:29;;;;;;;11.23;4.93;;;7.50;99.90;;;;;;5010833;28;20018;-75
2023/12/15 11:53:58;;;;;;;9.23;4.55;;;7.60;99.90;;;;;;4996057;28;20125;-74
2023/12/15 11:56:26;;;;;;;9.52;4.30;;;7.60;99.90;;;;;;5027448;28;20045;-75
2023/12/15 11:58:52;;;;;;;10.15;5.07;;;7.60;99.90;;;;;;5011418;28;20026;-74
2023/12/15 12:01:18;;;;;;;9.77;4.72;;;7.60;99.90;;;;;;5012712;28;20481;-75
2023/12/15 12:03:44;;;;;;;8.10;4.50;;;7.60;99.90;;;;;;5018023;28;20034;-75
2023/12/15 12:06:10;;;;;;;11.75;4.72;;;7.50;99.90;;;;;;5027792;28;20362;-74
2023/12/15 12:08:37;;;;;;;11.50;4.95;;;7.60;99.90;;;;;;5003551;28;20021;-75
2023/12/15 12:11:05;;;;;;;12.45;4.68;;;7.60;99.90;;;;;;5002619;28;20040;-76
2023/12/15 12:13:37;;;;;;;8.57;4.57;;;7.70;99.90;;;;;;5025126;28;20037;-74
2023/12/15 12:16:04;;;;;;;10.23;4.80;;;7.70;99.90;;;;;;4987420;28;20200;-74
2023/12/15 12:18:31;;;;;;;7.65;3.75;;;7.70;99.90;;;;;;5000489;28;20037;-74
2023/12/15 12:21:02;;;;;;;8.35;3.85;;;7.70;99.90;;;;;;5027937;28;20547;-74
2023/12/15 12:23:28;;;;;;;;;;;7.60;99.90;;;;;;5003149;28;20621;-72
2023/12/15 12:25:58;;;;;;;12.45;4.75;;;7.60;99.90;;;;;;5030238;28;20019;-71
2023/12/15 12:28:48;;;;;;;9.20;3.92;;;7.50;99.90;;;;;;5011285;28;20064;-71
2023/12/15 12:31:17;;;;;;;9.18;4.18;;;7.50;99.90;;;;;;5013033;28;20025;-72
2023/12/15 12:33:43;;;;;;;10.00;4.53;;;7.50;99.90;;;;;;5009098;28;20033;-71
2023/12/15 12:36:09;;;;;;;14.95;4.28;;;7.50;99.90;;;;;;5023177;28;20025;-72
2023/12/15 12:38:35;;;;;;;11.43;5.95;;;7.40;99.90;;;;;;5005212;28;20026;-73
2023/12/15 12:41:05;;;;;;;13.80;5.22;;;7.50;99.90;;;;;;5004862;28;20052;-73
2023/12/15 12:43:34;;;;;;;10.93;5.05;;;7.80;99.90;;;;;;5029818;28;20033;-75
2023/12/15 12:46:00;;;;;;;13.25;5.82;;;7.70;99.90;;;;;;5031192;28;20473;-72
2023/12/15 12:48:27;;;;;;;14.77;4.50;;;8.30;99.90;;;;;;5009672;28;20048;-73
2023/12/15 12:50:52;;;;;;;11.95;5.05;;;8.20;99.90;;;;;;5011492;28;20046;-72
2023/12/15 12:53:18;;;;;;;8.27;4.50;;;8.00;99.90;;;;;;5010890;28;20029;-73
2023/12/15 12:55:44;;;;;;;11.48;4.22;;;7.90;99.90;;;;;;5029280;28;20113;-73
2023/12/15 12:58:10;;;;;;;8.57;4.63;;;7.90;99.90;;;;;;5031344;28;20420;-74
2023/12/15 13:00:36;;;;;;;13.00;4.68;;;7.90;99.90;;;;;;5032219;28;20380;-73
2023/12/15 13:03:03;;;;;;;12.43;4.70;;;7.80;99.90;;;;;;5029500;28;20103;-74
2023/12/15 13:05:29;;;;;;;9.48;4.53;;;7.60;99.90;;;;;;5009028;28;20029;-74
2023/12/15 13:07:55;;;;;;;8.73;4.18;;;7.60;99.90;;;;;;5034272;28;20029;-74
2023/12/15 13:10:22;;;;;;;8.18;4.05;;;7.70;99.90;;;;;;5028582;28;20028;-73
2023/12/15 13:12:54;;;;;;;6.97;3.95;;;7.60;99.90;;;;;;5033615;28;20025;-72
2023/12/15 13:15:22;;;;;;;9.00;4.25;;;7.60;99.90;;;;;;5016845;28;20021;-72
2023/12/15 13:17:47;;;;;;;16.17;4.30;;;7.50;99.90;;;;;;5016418;28;20392;-73
2023/12/15 13:20:13;;;;;;;9.25;3.55;;;7.60;99.90;;;;;;5010631;28;20025;-73